sensor_id;sensor_type;location;lat;lon;timestamp;P1;durP1;ratioP1;P2;durP2;ratioP2
53927;SDS011;39837;47.630;18.822;2023-05-01T00:01:00;3.72;;;3.42;;
53927;SDS011;39837;47.630;18.822;2023-05-01T00:03:44;4.32;;;3.92;;
53927;SDS011;39837;47.630;18.822;2023-05-01T00:06:28;4.00;;;3.50;;
53927;SDS011;39837;47.630;18.822;2023-05-01T00:09:12;4.72;;;3.20;;
53927;SDS011;39837;47.630;18.822;2023-05-01T00:11:56;4.72;;;3.35;;
53927;SDS011;39837;47.630;18.822;2023-05-01T00:14:40;4.13;;;3.83;;
53927;SDS011;39837;47.630;18.822;2023-05-01T00:17:24;7.57;;;3.45;;
53927;SDS011;39837;47.630;18.822;2023-05-01T00:20:10;2.85;;;2.65;;
53927;SDS011;39837;47.630;18.822;2023-05-01T00:22:54;5.57;;;3.08;;
53927;SDS011;39837;47.630;18.822;2023-05-01T00:25:38;4.43;;;4.03;;
53927;SDS011;39837;47.630;18.822;2023-05-01T00:28:22;3.38;;;3.17;;
53927;SDS011;39837;47.630;18.822;2023-05-01T00:31:06;3.65;;;3.40;;
53927;SDS011;39837;47.630;18.822;2023-05-01T00:33:51;3.25;;;3.05;;
53927;SDS011;39837;47.630;18.822;2023-05-01T00:36:35;6.63;;;3.97;;
53927;SDS011;39837;47.630;18.822;2023-05-01T00:39:19;5.55;;;4.10;;
53927;SDS011;39837;47.630;18.822;2023-05-01T00:42:03;4.10;;;3.80;;
53927;SDS011;39837;47.630;18.822;2023-05-01T00:44:47;3.58;;;3.33;;
53927;SDS011;39837;47.630;18.822;2023-05-01T00:47:31;4.72;;;3.55;;
53927;SDS011;39837;47.630;18.822;2023-05-01T00:50:17;5.35;;;3.78;;
53927;SDS011;39837;47.630;18.822;2023-05-01T00:53:01;3.78;;;3.47;;
53927;SDS011;39837;47.630;18.822;2023-05-01T00:55:45;3.65;;;3.38;;
53927;SDS011;39837;47.630;18.822;2023-05-01T00:58:30;2.92;;;2.72;;
53927;SDS011;39837;47.630;18.822;2023-05-01T01:01:14;4.03;;;3.53;;
53927;SDS011;39837;47.630;18.822;2023-05-01T01:03:58;4.35;;;3.97;;
53927;SDS011;39837;47.630;18.822;2023-05-01T01:06:57;3.63;;;3.33;;
53927;SDS011;39837;47.630;18.822;2023-05-01T01:09:51;5.57;;;3.75;;
53927;SDS011;39837;47.630;18.822;2023-05-01T01:13:30;3.60;;;3.30;;
53927;SDS011;39837;47.630;18.822;2023-05-01T01:19:18;3.33;;;3.13;;
53927;SDS011;39837;47.630;18.822;2023-05-01T01:22:12;4.38;;;3.97;;
53927;SDS011;39837;47.630;18.822;2023-05-01T01:40:13;2.38;;;2.28;;
53927;SDS011;39837;47.630;18.822;2023-05-01T01:43:04;4.40;;;4.07;;
53927;SDS011;39837;47.630;18.822;2023-05-01T01:45:52;3.75;;;3.45;;
53927;SDS011;39837;47.630;18.822;2023-05-01T01:48:39;3.83;;;3.40;;
53927;SDS011;39837;47.630;18.822;2023-05-01T01:51:25;5.63;;;3.83;;
53927;SDS011;39837;47.630;18.822;2023-05-01T01:54:10;4.13;;;3.58;;
53927;SDS011;39837;47.630;18.822;2023-05-01T01:56:55;5.78;;;2.75;;
53927;SDS011;39837;47.630;18.822;2023-05-01T01:59:42;4.75;;;3.60;;
53927;SDS011;39837;47.630;18.822;2023-05-01T02:02:27;3.72;;;3.28;;
53927;SDS011;39837;47.630;18.822;2023-05-01T02:05:12;3.95;;;3.28;;
53927;SDS011;39837;47.630;18.822;2023-05-01T02:07:58;3.72;;;3.20;;
53927;SDS011;39837;47.630;18.822;2023-05-01T02:10:42;7.45;;;3.42;;
53927;SDS011;39837;47.630;18.822;2023-05-01T02:13:27;4.72;;;3.42;;
53927;SDS011;39837;47.630;18.822;2023-05-01T02:16:12;3.80;;;3.53;;
53927;SDS011;39837;47.630;18.822;2023-05-01T02:18:57;3.83;;;3.53;;
53927;SDS011;39837;47.630;18.822;2023-05-01T02:21:41;5.38;;;3.60;;
53927;SDS011;39837;47.630;18.822;2023-05-01T02:24:26;4.75;;;3.40;;
53927;SDS011;39837;47.630;18.822;2023-05-01T02:27:15;3.58;;;3.28;;
53927;SDS011;39837;47.630;18.822;2023-05-01T02:30:04;3.47;;;3.20;;
53927;SDS011;39837;47.630;18.822;2023-05-01T02:32:49;3.67;;;3.45;;
53927;SDS011;39837;47.630;18.822;2023-05-01T02:35:40;5.13;;;3.47;;
53927;SDS011;39837;47.630;18.822;2023-05-01T02:38:26;3.60;;;3.30;;
53927;SDS011;39837;47.630;18.822;2023-05-01T02:41:11;10.63;;;4.97;;
53927;SDS011;39837;47.630;18.822;2023-05-01T02:43:59;4.68;;;4.38;;
53927;SDS011;39837;47.630;18.822;2023-05-01T02:46:46;4.28;;;3.88;;
53927;SDS011;39837;47.630;18.822;2023-05-01T02:49:32;3.20;;;3.00;;
53927;SDS011;39837;47.630;18.822;2023-05-01T02:52:17;9.35;;;3.97;;
53927;SDS011;39837;47.630;18.822;2023-05-01T02:55:02;2.97;;;2.75;;
53927;SDS011;39837;47.630;18.822;2023-05-01T02:57:49;3.53;;;3.30;;
53927;SDS011;39837;47.630;18.822;2023-05-01T03:00:34;3.00;;;2.80;;
53927;SDS011;39837;47.630;18.822;2023-05-01T03:03:18;4.32;;;3.92;;
53927;SDS011;39837;47.630;18.822;2023-05-01T03:06:02;4.05;;;3.50;;
53927;SDS011;39837;47.630;18.822;2023-05-01T03:08:46;4.10;;;3.67;;
53927;SDS011;39837;47.630;18.822;2023-05-01T03:11:30;5.30;;;4.38;;
53927;SDS011;39837;47.630;18.822;2023-05-01T03:14:14;3.90;;;3.60;;
53927;SDS011;39837;47.630;18.822;2023-05-01T03:16:59;3.17;;;2.97;;
53927;SDS011;39837;47.630;18.822;2023-05-01T03:19:42;3.08;;;2.88;;
53927;SDS011;39837;47.630;18.822;2023-05-01T03:22:29;3.97;;;3.58;;
53927;SDS011;39837;47.630;18.822;2023-05-01T03:25:15;4.68;;;3.35;;
53927;SDS011;39837;47.630;18.822;2023-05-01T03:27:59;3.33;;;3.00;;
53927;SDS011;39837;47.630;18.822;2023-05-01T03:30:43;3.00;;;2.90;;
53927;SDS011;39837;47.630;18.822;2023-05-01T03:33:27;5.80;;;3.20;;
53927;SDS011;39837;47.630;18.822;2023-05-01T03:36:11;3.38;;;3.13;;
53927;SDS011;39837;47.630;18.822;2023-05-01T03:38:55;3.45;;;3.25;;
53927;SDS011;39837;47.630;18.822;2023-05-01T03:41:39;4.32;;;3.97;;
53927;SDS011;39837;47.630;18.822;2023-05-01T03:44:24;4.47;;;4.07;;
53927;SDS011;39837;47.630;18.822;2023-05-01T03:47:08;3.58;;;3.38;;
53927;SDS011;39837;47.630;18.822;2023-05-01T03:49:52;3.63;;;3.38;;
53927;SDS011;39837;47.630;18.822;2023-05-01T03:52:37;4.57;;;3.20;;
53927;SDS011;39837;47.630;18.822;2023-05-01T03:55:21;3.42;;;3.13;;
53927;SDS011;39837;47.630;18.822;2023-05-01T03:58:05;3.10;;;2.90;;
53927;SDS011;39837;47.630;18.822;2023-05-01T04:00:50;4.30;;;3.67;;
53927;SDS011;39837;47.630;18.822;2023-05-01T04:03:34;3.33;;;3.10;;
53927;SDS011;39837;47.630;18.822;2023-05-01T04:06:17;3.80;;;3.50;;
53927;SDS011;39837;47.630;18.822;2023-05-01T04:09:02;5.13;;;4.13;;
53927;SDS011;39837;47.630;18.822;2023-05-01T04:11:46;3.45;;;3.13;;
53927;SDS011;39837;47.630;18.822;2023-05-01T04:14:30;3.83;;;3.53;;
53927;SDS011;39837;47.630;18.822;2023-05-01T04:17:14;3.58;;;3.38;;
53927;SDS011;39837;47.630;18.822;2023-05-01T04:19:58;7.28;;;4.32;;
53927;SDS011;39837;47.630;18.822;2023-05-01T04:22:43;4.50;;;4.10;;
53927;SDS011;39837;47.630;18.822;2023-05-01T04:25:27;4.45;;;4.15;;
53927;SDS011;39837;47.630;18.822;2023-05-01T04:28:12;4.15;;;3.85;;
53927;SDS011;39837;47.630;18.822;2023-05-01T04:30:56;3.83;;;3.60;;
53927;SDS011;39837;47.630;18.822;2023-05-01T04:33:41;4.40;;;4.00;;
53927;SDS011;39837;47.630;18.822;2023-05-01T04:36:25;3.72;;;3.42;;
53927;SDS011;39837;47.630;18.822;2023-05-01T04:39:09;4.10;;;3.70;;
53927;SDS011;39837;47.630;18.822;2023-05-01T04:41:53;3.88;;;3.58;;
53927;SDS011;39837;47.630;18.822;2023-05-01T04:44:37;4.07;;;3.42;;
53927;SDS011;39837;47.630;18.822;2023-05-01T04:47:21;4.63;;;4.15;;
53927;SDS011;39837;47.630;18.822;2023-05-01T04:50:06;3.80;;;3.50;;
53927;SDS011;39837;47.630;18.822;2023-05-01T04:52:50;4.63;;;4.20;;
53927;SDS011;39837;47.630;18.822;2023-05-01T04:55:36;7.72;;;4.25;;
53927;SDS011;39837;47.630;18.822;2023-05-01T04:58:20;3.92;;;3.63;;
53927;SDS011;39837;47.630;18.822;2023-05-01T05:01:04;4.97;;;4.40;;
53927;SDS011;39837;47.630;18.822;2023-05-01T05:03:48;17.60;;;4.05;;
53927;SDS011;39837;47.630;18.822;2023-05-01T05:06:32;3.78;;;3.45;;
53927;SDS011;39837;47.630;18.822;2023-05-01T05:09:16;4.63;;;4.13;;
53927;SDS011;39837;47.630;18.822;2023-05-01T05:12:00;3.70;;;3.50;;
53927;SDS011;39837;47.630;18.822;2023-05-01T05:14:46;4.00;;;3.60;;
53927;SDS011;39837;47.630;18.822;2023-05-01T05:17:30;3.92;;;3.63;;
53927;SDS011;39837;47.630;18.822;2023-05-01T05:20:14;3.28;;;3.03;;
53927;SDS011;39837;47.630;18.822;2023-05-01T05:22:58;3.58;;;3.38;;
53927;SDS011;39837;47.630;18.822;2023-05-01T05:25:42;3.10;;;2.90;;
53927;SDS011;39837;47.630;18.822;2023-05-01T05:28:26;3.47;;;3.22;;
53927;SDS011;39837;47.630;18.822;2023-05-01T05:31:11;6.10;;;2.92;;
53927;SDS011;39837;47.630;18.822;2023-05-01T05:33:55;2.83;;;2.63;;
53927;SDS011;39837;47.630;18.822;2023-05-01T05:36:39;3.75;;;3.08;;
53927;SDS011;39837;47.630;18.822;2023-05-01T05:39:23;2.75;;;2.55;;
53927;SDS011;39837;47.630;18.822;2023-05-01T05:42:07;2.47;;;2.38;;
53927;SDS011;39837;47.630;18.822;2023-05-01T05:44:51;3.35;;;3.05;;
53927;SDS011;39837;47.630;18.822;2023-05-01T05:47:36;2.78;;;2.65;;
53927;SDS011;39837;47.630;18.822;2023-05-01T05:50:20;2.50;;;2.38;;
53927;SDS011;39837;47.630;18.822;2023-05-01T05:53:04;2.03;;;2.03;;
53927;SDS011;39837;47.630;18.822;2023-05-01T05:55:48;2.38;;;2.28;;
53927;SDS011;39837;47.630;18.822;2023-05-01T05:58:32;2.60;;;2.45;;
53927;SDS011;39837;47.630;18.822;2023-05-01T06:01:16;2.47;;;2.38;;
53927;SDS011;39837;47.630;18.822;2023-05-01T06:04:00;3.80;;;2.72;;
53927;SDS011;39837;47.630;18.822;2023-05-01T06:06:44;3.20;;;2.38;;
53927;SDS011;39837;47.630;18.822;2023-05-01T06:09:28;2.80;;;2.60;;
53927;SDS011;39837;47.630;18.822;2023-05-01T06:12:12;2.53;;;2.38;;
53927;SDS011;39837;47.630;18.822;2023-05-01T06:14:56;7.65;;;2.63;;
53927;SDS011;39837;47.630;18.822;2023-05-01T06:17:44;2.75;;;2.55;;
53927;SDS011;39837;47.630;18.822;2023-05-01T06:20:28;2.40;;;2.30;;
53927;SDS011;39837;47.630;18.822;2023-05-01T06:23:12;5.07;;;2.17;;
53927;SDS011;39837;47.630;18.822;2023-05-01T06:25:57;2.70;;;2.50;;
53927;SDS011;39837;47.630;18.822;2023-05-01T06:28:42;2.70;;;2.50;;
53927;SDS011;39837;47.630;18.822;2023-05-01T06:31:26;2.63;;;2.53;;
53927;SDS011;39837;47.630;18.822;2023-05-01T06:34:10;7.20;;;3.17;;
53927;SDS011;39837;47.630;18.822;2023-05-01T06:36:54;2.35;;;2.25;;
53927;SDS011;39837;47.630;18.822;2023-05-01T06:39:38;1.55;;;1.48;;
53927;SDS011;39837;47.630;18.822;2023-05-01T06:42:22;2.55;;;2.10;;
53927;SDS011;39837;47.630;18.822;2023-05-01T06:45:07;1.90;;;1.80;;
53927;SDS011;39837;47.630;18.822;2023-05-01T06:47:51;2.20;;;2.10;;
53927;SDS011;39837;47.630;18.822;2023-05-01T06:50:36;1.40;;;1.08;;
53927;SDS011;39837;47.630;18.822;2023-05-01T06:53:20;1.63;;;1.52;;
53927;SDS011;39837;47.630;18.822;2023-05-01T06:56:04;1.63;;;1.52;;
53927;SDS011;39837;47.630;18.822;2023-05-01T06:58:49;2.13;;;1.83;;
53927;SDS011;39837;47.630;18.822;2023-05-01T07:01:33;6.18;;;2.40;;
53927;SDS011;39837;47.630;18.822;2023-05-01T07:04:17;1.33;;;1.33;;
53927;SDS011;39837;47.630;18.822;2023-05-01T07:07:01;1.73;;;1.63;;
53927;SDS011;39837;47.630;18.822;2023-05-01T07:09:45;1.20;;;1.20;;
53927;SDS011;39837;47.630;18.822;2023-05-01T07:12:29;1.60;;;1.23;;
53927;SDS011;39837;47.630;18.822;2023-05-01T07:15:13;1.35;;;1.35;;
53927;SDS011;39837;47.630;18.822;2023-05-01T07:17:58;1.33;;;1.33;;
53927;SDS011;39837;47.630;18.822;2023-05-01T07:20:45;1.00;;;1.00;;
53927;SDS011;39837;47.630;18.822;2023-05-01T07:23:29;3.03;;;1.42;;
53927;SDS011;39837;47.630;18.822;2023-05-01T07:26:13;1.00;;;1.00;;
53927;SDS011;39837;47.630;18.822;2023-05-01T07:28:57;2.10;;;1.52;;
53927;SDS011;39837;47.630;18.822;2023-05-01T07:31:41;1.70;;;1.30;;
53927;SDS011;39837;47.630;18.822;2023-05-01T07:34:26;1.45;;;1.23;;
53927;SDS011;39837;47.630;18.822;2023-05-01T07:37:10;2.70;;;1.50;;
53927;SDS011;39837;47.630;18.822;2023-05-01T07:39:54;5.88;;;1.30;;
53927;SDS011;39837;47.630;18.822;2023-05-01T07:42:39;2.47;;;2.00;;
53927;SDS011;39837;47.630;18.822;2023-05-01T07:45:23;0.73;;;0.73;;
53927;SDS011;39837;47.630;18.822;2023-05-01T07:48:08;1.38;;;1.38;;
53927;SDS011;39837;47.630;18.822;2023-05-01T07:50:53;1.73;;;1.63;;
53927;SDS011;39837;47.630;18.822;2023-05-01T07:53:37;1.30;;;1.20;;
53927;SDS011;39837;47.630;18.822;2023-05-01T07:56:23;0.95;;;0.95;;
53927;SDS011;39837;47.630;18.822;2023-05-01T07:59:07;1.08;;;1.05;;
53927;SDS011;39837;47.630;18.822;2023-05-01T08:01:50;1.08;;;1.08;;
53927;SDS011;39837;47.630;18.822;2023-05-01T08:04:34;1.60;;;1.60;;
53927;SDS011;39837;47.630;18.822;2023-05-01T08:07:19;1.90;;;1.40;;
53927;SDS011;39837;47.630;18.822;2023-05-01T08:10:03;1.35;;;1.23;;
53927;SDS011;39837;47.630;18.822;2023-05-01T08:12:47;1.50;;;1.40;;
53927;SDS011;39837;47.630;18.822;2023-05-01T08:15:32;1.10;;;1.10;;
53927;SDS011;39837;47.630;18.822;2023-05-01T08:18:16;1.45;;;1.38;;
53927;SDS011;39837;47.630;18.822;2023-05-01T08:21:03;0.98;;;0.98;;
53927;SDS011;39837;47.630;18.822;2023-05-01T08:23:47;1.25;;;1.25;;
53927;SDS011;39837;47.630;18.822;2023-05-01T08:26:33;2.70;;;1.83;;
53927;SDS011;39837;47.630;18.822;2023-05-01T08:29:17;1.13;;;1.13;;
53927;SDS011;39837;47.630;18.822;2023-05-01T08:32:01;3.50;;;1.43;;
53927;SDS011;39837;47.630;18.822;2023-05-01T08:34:45;1.63;;;1.52;;
53927;SDS011;39837;47.630;18.822;2023-05-01T08:37:30;1.50;;;1.50;;
53927;SDS011;39837;47.630;18.822;2023-05-01T08:40:14;0.90;;;0.90;;
53927;SDS011;39837;47.630;18.822;2023-05-01T08:43:01;1.13;;;1.07;;
53927;SDS011;39837;47.630;18.822;2023-05-01T08:45:45;1.00;;;1.00;;
53927;SDS011;39837;47.630;18.822;2023-05-01T08:48:30;1.35;;;1.25;;
53927;SDS011;39837;47.630;18.822;2023-05-01T08:51:15;1.17;;;1.17;;
53927;SDS011;39837;47.630;18.822;2023-05-01T08:54:00;1.45;;;1.35;;
53927;SDS011;39837;47.630;18.822;2023-05-01T08:56:45;2.85;;;1.08;;
53927;SDS011;39837;47.630;18.822;2023-05-01T08:59:33;1.05;;;1.05;;
53927;SDS011;39837;47.630;18.822;2023-05-01T09:02:18;3.40;;;1.17;;
53927;SDS011;39837;47.630;18.822;2023-05-01T09:05:04;0.93;;;0.93;;
53927;SDS011;39837;47.630;18.822;2023-05-01T09:07:49;1.13;;;1.13;;
53927;SDS011;39837;47.630;18.822;2023-05-01T09:10:33;1.93;;;0.97;;
53927;SDS011;39837;47.630;18.822;2023-05-01T09:13:22;1.35;;;1.10;;
53927;SDS011;39837;47.630;18.822;2023-05-01T09:16:08;5.22;;;1.55;;
53927;SDS011;39837;47.630;18.822;2023-05-01T09:18:52;5.97;;;1.23;;
53927;SDS011;39837;47.630;18.822;2023-05-01T09:21:37;0.85;;;0.85;;
53927;SDS011;39837;47.630;18.822;2023-05-01T09:24:23;1.23;;;1.23;;
53927;SDS011;39837;47.630;18.822;2023-05-01T09:27:07;1.00;;;1.00;;
53927;SDS011;39837;47.630;18.822;2023-05-01T09:29:52;1.02;;;1.02;;
53927;SDS011;39837;47.630;18.822;2023-05-01T09:32:36;0.80;;;0.80;;
53927;SDS011;39837;47.630;18.822;2023-05-01T09:35:20;8.90;;;1.40;;
53927;SDS011;39837;47.630;18.822;2023-05-01T09:38:04;0.83;;;0.83;;
53927;SDS011;39837;47.630;18.822;2023-05-01T09:40:49;0.95;;;0.95;;
53927;SDS011;39837;47.630;18.822;2023-05-01T09:43:33;1.38;;;1.27;;
53927;SDS011;39837;47.630;18.822;2023-05-01T09:46:17;0.90;;;0.90;;
53927;SDS011;39837;47.630;18.822;2023-05-01T09:49:01;1.45;;;1.42;;
53927;SDS011;39837;47.630;18.822;2023-05-01T09:51:46;0.88;;;0.88;;
53927;SDS011;39837;47.630;18.822;2023-05-01T09:54:31;4.72;;;0.95;;
53927;SDS011;39837;47.630;18.822;2023-05-01T09:57:14;0.82;;;0.82;;
53927;SDS011;39837;47.630;18.822;2023-05-01T10:00:02;1.33;;;1.23;;
53927;SDS011;39837;47.630;18.822;2023-05-01T10:02:57;3.35;;;1.00;;
53927;SDS011;39837;47.630;18.822;2023-05-01T10:05:56;1.42;;;1.40;;
53927;SDS011;39837;47.630;18.822;2023-05-01T10:08:44;0.80;;;0.80;;
53927;SDS011;39837;47.630;18.822;2023-05-01T10:11:29;1.02;;;1.02;;
53927;SDS011;39837;47.630;18.822;2023-05-01T10:14:14;1.40;;;1.40;;
53927;SDS011;39837;47.630;18.822;2023-05-01T10:16:58;1.23;;;1.23;;
53927;SDS011;39837;47.630;18.822;2023-05-01T10:19:42;1.35;;;1.30;;
53927;SDS011;39837;47.630;18.822;2023-05-01T10:22:26;1.13;;;1.13;;
53927;SDS011;39837;47.630;18.822;2023-05-01T10:25:11;1.07;;;0.93;;
53927;SDS011;39837;47.630;18.822;2023-05-01T10:27:55;2.78;;;1.27;;
53927;SDS011;39837;47.630;18.822;2023-05-01T10:30:44;1.60;;;1.50;;
53927;SDS011;39837;47.630;18.822;2023-05-01T10:33:28;1.23;;;1.23;;
53927;SDS011;39837;47.630;18.822;2023-05-01T10:36:16;1.40;;;1.30;;
53927;SDS011;39837;47.630;18.822;2023-05-01T10:42:17;1.25;;;1.20;;
53927;SDS011;39837;47.630;18.822;2023-05-01T10:45:47;2.78;;;1.50;;
53927;SDS011;39837;47.630;18.822;2023-05-01T10:51:25;1.33;;;1.23;;
53927;SDS011;39837;47.630;18.822;2023-05-01T10:57:00;1.23;;;1.13;;
53927;SDS011;39837;47.630;18.822;2023-05-01T11:02:42;1.02;;;1.02;;
53927;SDS011;39837;47.630;18.822;2023-05-01T11:08:42;2.20;;;1.52;;
53927;SDS011;39837;47.630;18.822;2023-05-01T11:14:11;3.17;;;1.30;;
53927;SDS011;39837;47.630;18.822;2023-05-01T11:16:55;1.42;;;1.42;;
53927;SDS011;39837;47.630;18.822;2023-05-01T11:22:30;3.30;;;2.20;;
53927;SDS011;39837;47.630;18.822;2023-05-01T11:28:13;1.10;;;1.10;;
53927;SDS011;39837;47.630;18.822;2023-05-01T11:31:01;0.80;;;0.80;;
53927;SDS011;39837;47.630;18.822;2023-05-01T11:33:46;0.95;;;0.95;;
53927;SDS011;39837;47.630;18.822;2023-05-01T11:36:45;1.35;;;1.25;;
53927;SDS011;39837;47.630;18.822;2023-05-01T11:39:31;1.17;;;1.17;;
53927;SDS011;39837;47.630;18.822;2023-05-01T11:42:18;1.20;;;1.20;;
53927;SDS011;39837;47.630;18.822;2023-05-01T11:45:07;2.08;;;1.80;;
53927;SDS011;39837;47.630;18.822;2023-05-01T11:47:53;1.20;;;1.20;;
53927;SDS011;39837;47.630;18.822;2023-05-01T11:50:37;1.15;;;1.15;;
53927;SDS011;39837;47.630;18.822;2023-05-01T11:53:21;1.23;;;1.23;;
53927;SDS011;39837;47.630;18.822;2023-05-01T11:56:17;0.95;;;0.95;;
53927;SDS011;39837;47.630;18.822;2023-05-01T11:59:13;1.10;;;1.10;;
53927;SDS011;39837;47.630;18.822;2023-05-01T12:01:59;1.02;;;1.02;;
53927;SDS011;39837;47.630;18.822;2023-05-01T12:04:43;1.65;;;1.30;;
53927;SDS011;39837;47.630;18.822;2023-05-01T12:07:27;4.45;;;1.67;;
53927;SDS011;39837;47.630;18.822;2023-05-01T12:10:12;1.10;;;1.10;;
53927;SDS011;39837;47.630;18.822;2023-05-01T12:12:56;1.15;;;1.10;;
53927;SDS011;39837;47.630;18.822;2023-05-01T12:15:44;1.27;;;1.27;;
53927;SDS011;39837;47.630;18.822;2023-05-01T12:18:29;1.00;;;1.00;;
53927;SDS011;39837;47.630;18.822;2023-05-01T12:21:14;3.58;;;1.83;;
53927;SDS011;39837;47.630;18.822;2023-05-01T12:24:10;0.82;;;0.82;;
53927;SDS011;39837;47.630;18.822;2023-05-01T12:26:58;1.50;;;1.02;;
53927;SDS011;39837;47.630;18.822;2023-05-01T12:29:43;1.00;;;1.00;;
53927;SDS011;39837;47.630;18.822;2023-05-01T12:32:30;1.38;;;1.20;;
53927;SDS011;39837;47.630;18.822;2023-05-01T12:35:14;1.00;;;1.00;;
53927;SDS011;39837;47.630;18.822;2023-05-01T12:37:59;1.60;;;1.20;;
53927;SDS011;39837;47.630;18.822;2023-05-01T12:40:50;1.10;;;1.10;;
53927;SDS011;39837;47.630;18.822;2023-05-01T12:43:40;1.00;;;1.00;;
53927;SDS011;39837;47.630;18.822;2023-05-01T12:46:25;1.10;;;1.10;;
53927;SDS011;39837;47.630;18.822;2023-05-01T12:49:19;0.98;;;0.98;;
53927;SDS011;39837;47.630;18.822;2023-05-01T12:52:04;1.50;;;1.40;;
53927;SDS011;39837;47.630;18.822;2023-05-01T12:54:50;0.88;;;0.88;;
53927;SDS011;39837;47.630;18.822;2023-05-01T12:57:34;1.17;;;1.17;;
53927;SDS011;39837;47.630;18.822;2023-05-01T13:00:18;1.08;;;1.08;;
53927;SDS011;39837;47.630;18.822;2023-05-01T13:03:03;0.80;;;0.80;;
53927;SDS011;39837;47.630;18.822;2023-05-01T13:05:51;1.23;;;1.23;;
53927;SDS011;39837;47.630;18.822;2023-05-01T13:08:46;0.98;;;0.98;;
53927;SDS011;39837;47.630;18.822;2023-05-01T13:11:30;1.85;;;1.35;;
53927;SDS011;39837;47.630;18.822;2023-05-01T13:14:14;1.08;;;1.08;;
53927;SDS011;39837;47.630;18.822;2023-05-01T13:16:58;1.02;;;1.02;;
53927;SDS011;39837;47.630;18.822;2023-05-01T13:19:42;1.95;;;1.77;;
53927;SDS011;39837;47.630;18.822;2023-05-01T13:22:33;1.30;;;1.30;;
53927;SDS011;39837;47.630;18.822;2023-05-01T13:25:18;1.42;;;1.15;;
53927;SDS011;39837;47.630;18.822;2023-05-01T13:28:06;1.30;;;1.30;;
53927;SDS011;39837;47.630;18.822;2023-05-01T13:30:52;3.28;;;1.15;;
53927;SDS011;39837;47.630;18.822;2023-05-01T13:33:36;1.08;;;1.08;;
53927;SDS011;39837;47.630;18.822;2023-05-01T13:36:21;1.08;;;1.08;;
53927;SDS011;39837;47.630;18.822;2023-05-01T13:39:05;1.48;;;1.27;;
53927;SDS011;39837;47.630;18.822;2023-05-01T13:41:50;0.77;;;0.77;;
53927;SDS011;39837;47.630;18.822;2023-05-01T13:44:41;0.82;;;0.82;;
53927;SDS011;39837;47.630;18.822;2023-05-01T13:47:29;1.25;;;1.15;;
53927;SDS011;39837;47.630;18.822;2023-05-01T13:50:13;0.88;;;0.88;;
53927;SDS011;39837;47.630;18.822;2023-05-01T13:53:00;1.00;;;1.00;;
53927;SDS011;39837;47.630;18.822;2023-05-01T13:55:44;0.90;;;0.90;;
53927;SDS011;39837;47.630;18.822;2023-05-01T13:58:28;0.90;;;0.90;;
53927;SDS011;39837;47.630;18.822;2023-05-01T14:01:15;1.00;;;1.00;;
53927;SDS011;39837;47.630;18.822;2023-05-01T14:04:01;0.95;;;0.95;;
53927;SDS011;39837;47.630;18.822;2023-05-01T14:09:33;1.30;;;1.20;;
53927;SDS011;39837;47.630;18.822;2023-05-01T14:12:25;0.57;;;0.57;;
53927;SDS011;39837;47.630;18.822;2023-05-01T14:15:11;0.85;;;0.85;;
53927;SDS011;39837;47.630;18.822;2023-05-01T14:17:55;0.90;;;0.90;;
53927;SDS011;39837;47.630;18.822;2023-05-01T14:20:43;1.48;;;1.38;;
53927;SDS011;39837;47.630;18.822;2023-05-01T14:23:29;0.98;;;0.98;;
53927;SDS011;39837;47.630;18.822;2023-05-01T14:26:17;1.23;;;1.10;;
53927;SDS011;39837;47.630;18.822;2023-05-01T14:29:02;0.95;;;0.95;;
53927;SDS011;39837;47.630;18.822;2023-05-01T14:31:46;1.05;;;1.05;;
53927;SDS011;39837;47.630;18.822;2023-05-01T14:34:30;0.80;;;0.80;;
53927;SDS011;39837;47.630;18.822;2023-05-01T14:40:00;0.80;;;0.80;;
53927;SDS011;39837;47.630;18.822;2023-05-01T14:42:45;1.10;;;1.10;;
53927;SDS011;39837;47.630;18.822;2023-05-01T14:45:29;0.88;;;0.88;;
53927;SDS011;39837;47.630;18.822;2023-05-01T14:48:21;1.15;;;1.15;;
53927;SDS011;39837;47.630;18.822;2023-05-01T14:51:10;0.90;;;0.90;;
53927;SDS011;39837;47.630;18.822;2023-05-01T14:53:57;1.52;;;1.42;;
53927;SDS011;39837;47.630;18.822;2023-05-01T14:56:42;3.67;;;1.38;;
53927;SDS011;39837;47.630;18.822;2023-05-01T14:59:26;0.77;;;0.77;;
53927;SDS011;39837;47.630;18.822;2023-05-01T15:02:10;1.67;;;1.30;;
53927;SDS011;39837;47.630;18.822;2023-05-01T15:04:54;1.95;;;1.45;;
53927;SDS011;39837;47.630;18.822;2023-05-01T15:07:38;2.05;;;1.63;;
53927;SDS011;39837;47.630;18.822;2023-05-01T15:10:22;1.27;;;1.15;;
53927;SDS011;39837;47.630;18.822;2023-05-01T15:13:06;2.72;;;1.17;;
53927;SDS011;39837;47.630;18.822;2023-05-01T15:15:51;1.60;;;1.17;;
53927;SDS011;39837;47.630;18.822;2023-05-01T15:18:36;0.80;;;0.80;;
53927;SDS011;39837;47.630;18.822;2023-05-01T15:21:21;0.80;;;0.80;;
53927;SDS011;39837;47.630;18.822;2023-05-01T15:24:05;0.95;;;0.95;;
53927;SDS011;39837;47.630;18.822;2023-05-01T15:26:49;0.90;;;0.90;;
53927;SDS011;39837;47.630;18.822;2023-05-01T15:29:33;1.13;;;1.13;;
53927;SDS011;39837;47.630;18.822;2023-05-01T15:32:18;0.82;;;0.82;;
53927;SDS011;39837;47.630;18.822;2023-05-01T15:35:02;1.30;;;1.30;;
53927;SDS011;39837;47.630;18.822;2023-05-01T15:37:46;1.00;;;1.00;;
53927;SDS011;39837;47.630;18.822;2023-05-01T15:40:30;1.58;;;0.80;;
53927;SDS011;39837;47.630;18.822;2023-05-01T15:43:15;1.70;;;1.13;;
53927;SDS011;39837;47.630;18.822;2023-05-01T15:45:59;1.35;;;1.20;;
53927;SDS011;39837;47.630;18.822;2023-05-01T15:48:43;0.90;;;0.90;;
53927;SDS011;39837;47.630;18.822;2023-05-01T15:51:29;3.20;;;1.67;;
53927;SDS011;39837;47.630;18.822;2023-05-01T15:54:14;1.48;;;1.15;;
53927;SDS011;39837;47.630;18.822;2023-05-01T15:56:58;0.90;;;0.90;;
53927;SDS011;39837;47.630;18.822;2023-05-01T15:59:45;1.17;;;1.17;;
53927;SDS011;39837;47.630;18.822;2023-05-01T16:02:33;0.90;;;0.90;;
53927;SDS011;39837;47.630;18.822;2023-05-01T16:05:18;1.30;;;1.20;;
53927;SDS011;39837;47.630;18.822;2023-05-01T16:08:04;1.10;;;1.00;;
53927;SDS011;39837;47.630;18.822;2023-05-01T16:10:49;0.85;;;0.85;;
53927;SDS011;39837;47.630;18.822;2023-05-01T16:13:36;1.30;;;1.30;;
53927;SDS011;39837;47.630;18.822;2023-05-01T16:16:24;0.85;;;0.85;;
53927;SDS011;39837;47.630;18.822;2023-05-01T16:19:09;1.58;;;1.15;;
53927;SDS011;39837;47.630;18.822;2023-05-01T16:21:55;1.13;;;1.05;;
53927;SDS011;39837;47.630;18.822;2023-05-01T16:24:40;0.93;;;0.93;;
53927;SDS011;39837;47.630;18.822;2023-05-01T16:27:24;1.27;;;1.17;;
53927;SDS011;39837;47.630;18.822;2023-05-01T16:30:08;3.50;;;2.90;;
53927;SDS011;39837;47.630;18.822;2023-05-01T16:32:53;1.35;;;1.35;;
53927;SDS011;39837;47.630;18.822;2023-05-01T16:35:37;1.08;;;1.08;;
53927;SDS011;39837;47.630;18.822;2023-05-01T16:38:21;1.13;;;1.13;;
53927;SDS011;39837;47.630;18.822;2023-05-01T16:41:05;1.10;;;1.10;;
53927;SDS011;39837;47.630;18.822;2023-05-01T16:43:50;1.13;;;1.08;;
53927;SDS011;39837;47.630;18.822;2023-05-01T16:46:34;1.60;;;1.02;;
53927;SDS011;39837;47.630;18.822;2023-05-01T16:49:18;1.13;;;1.13;;
53927;SDS011;39837;47.630;18.822;2023-05-01T16:52:02;1.13;;;1.13;;
53927;SDS011;39837;47.630;18.822;2023-05-01T16:54:47;1.80;;;1.40;;
53927;SDS011;39837;47.630;18.822;2023-05-01T16:57:31;1.17;;;1.17;;
53927;SDS011;39837;47.630;18.822;2023-05-01T17:00:15;1.08;;;1.08;;
53927;SDS011;39837;47.630;18.822;2023-05-01T17:02:59;1.08;;;1.08;;
53927;SDS011;39837;47.630;18.822;2023-05-01T17:05:43;0.73;;;0.73;;
53927;SDS011;39837;47.630;18.822;2023-05-01T17:08:27;0.77;;;0.77;;